Latest Weather Observations for Mount Boyce

IDN60901

Issued at 3:11 pm EST Monday 6 July 2015 (issued every 10 minutes, with the page automatically refreshed every 10 minutes)

About weather observations | Map of Sydney area stations | Latest observations for Sydney area | Other Formats
Station Details ID: 063292 Name: MOUNT BOYCE AWS Lat: -33.62 Lon: 150.27 Height: 1080.0 m
Data from the previous 72 hours. | See also: Recent months at Mount Boyce
Date/Time
EST
Tmp

°C
App
Tmp
°C
Dew
Point
°C
Rel
Hum
%
Delta-T

°C
Wind Press
QNH
hPa
Press
MSL
hPa
Rain
since
9 am
mm
Dir
 
Spd
km/h
Gust
km/h
Spd
kts
Gust
kts
06/03:00pm 5.2 -4.4 -1.5 62 2.6 W 39 54 21 29 - - 0.0
06/02:30pm 6.0 -2.3 -0.5 63 2.7 WSW 33 54 18 29 - - 0.0
06/02:05pm 5.9 -2.2 -0.6 63 2.6 WSW 32 50 17 27 - - 0.0
06/02:00pm 6.2 -1.5 -0.1 64 2.6 WSW 30 44 16 24 - - 0.0
06/01:38pm 6.3 -1.0 0.0 64 2.6 WSW 28 46 15 25 - - 0.0
06/01:30pm 6.0 -2.0 0.1 66 2.4 W 32 46 17 25 - - 0.0
06/01:12pm 6.1 -2.0 0.0 65 2.5 WSW 32 50 17 27 - - 0.0
06/01:00pm 5.6 -2.5 -0.4 65 2.4 W 32 48 17 26 - - 0.0
06/12:30pm 5.9 -1.8 -0.2 65 2.5 W 30 46 16 25 - - 0.0
06/12:00pm 5.0 -2.9 -1.2 64 2.5 W 30 43 16 23 - - 0.0
06/11:45am 4.9 -2.5 -0.9 66 2.3 W 28 46 15 25 - - 0.0
06/11:30am 4.5 -3.0 -1.5 65 2.4 W 28 43 15 23 - - 0.0
06/11:00am 4.3 -3.2 -1.5 66 2.3 W 28 37 15 20 - - 0.0
06/10:30am 3.7 -4.6 -2.0 66 2.2 W 32 44 17 24 - - 0.0
06/10:00am 3.2 -4.7 -1.9 69 2.0 W 30 41 16 22 - - 0.0
06/09:30am 2.3 -4.9 -2.0 73 1.6 W 26 35 14 19 - - 0.0
06/09:00am 1.6 -4.9 -2.2 76 1.4 W 22 32 12 17 - - 0.0
06/08:30am 1.0 -5.5 -2.1 80 1.2 WSW 22 28 12 15 - - 0.0
06/08:00am 0.8 -6.0 -2.2 80 1.2 W 24 32 13 17 - - 0.0
06/07:30am 0.9 -6.0 -2.7 77 1.4 W 24 32 13 17 - - 0.0
06/07:00am 1.0 -5.1 -2.7 76 1.4 W 20 30 11 16 - - 0.0
06/06:30am 0.9 -5.3 -3.4 73 1.6 W 20 26 11 14 - - 0.0
06/06:00am 1.0 -5.2 -2.9 75 1.5 W 20 35 11 19 - - 0.0
06/05:30am 0.1 -6.1 -3.3 78 1.2 W 20 24 11 13 - - 0.0
06/05:00am 0.2 -5.9 -3.5 76 1.3 W 19 22 10 12 - - 0.0
06/04:30am 0.2 -5.9 -3.7 75 1.4 W 19 20 10 11 - - 0.0
06/04:00am 0.6 -5.1 -3.5 74 1.5 W 17 20 9 11 - - 0.0
06/03:30am 0.9 -4.8 -3.4 73 1.6 W 17 20 9 11 - - 0.0
06/03:00am 1.3 -4.8 -3.6 70 1.8 W 19 24 10 13 - - 0.0
06/02:30am 1.7 -4.4 -4.0 66 2.1 W 19 26 10 14 - - 0.0
06/02:00am 1.7 -4.4 -4.2 65 2.2 W 19 26 10 14 - - 0.0
06/01:30am 1.8 -4.4 -4.5 63 2.3 W 19 24 10 13 - - 0.0
06/01:00am 1.8 -4.0 -5.1 60 2.5 W 17 22 9 12 - - 0.0
06/12:30am 2.2 -3.6 -5.0 59 2.6 W 17 20 9 11 - - 0.0
 
Date/Time
EST
Tmp

°C
App
Tmp
°C
Dew
Point
°C
Rel
Hum
%
Delta-T

°C
Wind Press
QNH
hPa
Press
MSL
hPa
Rain
since
9 am
mm
Dir
 
Spd
km/h
Gust
km/h
Spd
kts
Gust
kts
05/11:30pm 3.0 -3.4 -5.4 54 2.9 WSW 20 24 11 13 - - 0.0
05/11:00pm 3.4 -3.1 -5.5 52 3.1 WSW 20 28 11 15 - - 0.0
05/10:30pm 3.5 -2.9 -6.5 48 3.4 W 19 26 10 14 - - 0.0
05/10:00pm 3.7 -2.3 -6.5 47 3.5 W 17 22 9 12 - - 0.0
05/09:30pm 4.2 -1.8 -6.7 45 3.7 W 17 22 9 12 - - 0.0
05/09:00pm 4.5 -1.5 -6.4 45 3.8 W 17 22 9 12 - - 0.0
05/08:30pm 5.1 -0.8 -6.1 44 3.9 W 17 22 9 12 - - 0.0
05/08:00pm 5.5 -0.7 -4.9 47 3.8 W 19 28 10 15 - - 0.0
05/07:30pm 5.8 0.2 -3.0 53 3.4 W 17 24 9 13 - - 0.0
05/07:00pm 6.1 0.7 -1.3 59 3.0 W 17 22 9 12 - - 0.0
05/06:30pm 6.4 1.5 -0.8 60 2.9 W 15 20 8 11 - - 0.0
05/06:00pm 6.8 2.2 -0.9 58 3.1 W 13 19 7 10 - - 0.0
05/05:30pm 7.2 3.7 -1.2 55 3.4 WNW 7 15 4 8 - - 0.0
05/05:00pm 8.4 3.8 -1.1 51 3.9 WNW 13 20 7 11 - - 0.0
05/04:30pm 9.5 4.9 -0.7 49 4.3 WNW 13 20 7 11 - - 0.0
05/04:00pm 10.1 5.6 -0.4 48 4.5 W 13 22 7 12 - - 0.0
05/03:30pm 11.7 7.2 -0.1 44 5.1 WNW 13 19 7 10 - - 0.0
05/03:00pm 11.9 6.9 -1.3 40 5.6 WNW 15 24 8 13 - - 0.0
05/02:30pm 12.0 6.3 -0.8 41 5.5 W 19 28 10 15 - - 0.0
05/02:00pm 12.0 7.5 -0.5 42 5.4 W 13 20 7 11 - - 0.0
05/01:30pm 12.3 8.2 0.1 43 5.4 W 11 19 6 10 - - 0.0
05/01:00pm 12.2 8.4 -0.6 41 5.5 WNW 9 19 5 10 - - 0.0
05/12:30pm 10.9 6.8 -0.5 45 4.9 WSW 11 17 6 9 - - 0.0
05/12:00pm 9.7 5.4 -1.9 44 4.8 W 11 19 6 10 - - 0.0
05/11:30am 9.1 4.3 -2.8 43 4.8 W 13 19 7 10 - - 0.0
05/11:00am 8.6 3.4 -2.9 44 4.6 W 15 22 8 12 - - 0.0
05/10:30am 8.0 3.0 -4.1 42 4.6 WNW 13 20 7 11 - - 0.0
05/10:00am 7.4 2.2 -6.0 38 4.9 WNW 13 17 7 9 - - 0.0
05/09:30am 6.9 1.2 -7.9 34 5.1 WNW 15 19 8 10 - - 0.0
05/09:00am 5.7 -0.2 -9.7 32 5.0 WNW 15 19 8 10 - - 0.0
05/08:30am 4.9 -0.6 -10.0 33 4.7 WNW 13 17 7 9 - - 0.0
05/08:00am 4.4 -1.1 -10.1 34 4.8 WNW 13 17 7 9 - - 0.0
05/07:30am 3.9 -1.1 -8.4 40 4.2 WNW 11 15 6 8 - - 0.0
05/07:00am 3.4 -1.2 -7.7 44 3.9 W 9 11 5 6 - - 0.0
05/06:30am 3.2 -1.0 -7.6 45 3.8 WNW 7 9 4 5 - - 0.0
05/06:00am 2.9 -1.6 -7.0 48 3.5 WNW 9 11 5 6 - - 0.0
05/05:30am 3.6 -0.5 -6.9 46 3.5 W 7 9 4 5 - - 0.0
05/05:00am 2.9 -1.6 -6.7 49 3.4 WNW 9 11 5 6 - - 0.0
05/04:30am 3.7 0.9 -6.5 47 3.5 CALM 0 0 0 0 - - 0.0
05/04:00am 4.8 2.3 -4.2 52 3.3 CALM 0 0 0 0 - - 0.0
05/03:30am 3.7 1.0 -5.5 51 3.2 CALM 0 0 0 0 - - 0.0
05/03:00am 2.7 -0.7 -4.9 57 2.7 W 4 7 2 4 - - 0.0
05/02:30am 3.5 1.2 -2.2 66 2.2 CALM 0 0 0 0 - - 0.0
05/02:00am 3.4 0.6 -6.8 47 3.6 CALM 0 0 0 0 - - 0.0
05/01:30am 2.9 0.2 -6.2 51 3.3 CALM 0 0 0 0 - - 0.0
05/01:00am 2.0 -0.5 -4.3 63 2.4 CALM 0 0 0 0 - - 0.0
05/12:30am 1.9 -1.9 -4.0 65 2.2 W 7 9 4 5 - - 0.0
05/12:00am 2.8 -1.0 -5.3 55 3.0 SW 6 7 3 4 - - 0.0
 
Date/Time
EST
Tmp

°C
App
Tmp
°C
Dew
Point
°C
Rel
Hum
%
Delta-T

°C
Wind Press
QNH
hPa
Press
MSL
hPa
Rain
since
9 am
mm
Dir
 
Spd
km/h
Gust
km/h
Spd
kts
Gust
kts
04/11:30pm 2.8 -0.9 -4.4 59 2.6 SW 6 7 3 4 - - 0.0
04/11:00pm 2.6 -1.2 -4.1 61 2.4 WSW 7 7 4 4 - - 0.0
04/10:30pm 2.2 -2.0 -4.1 63 2.4 W 9 11 5 6 - - 0.0
04/10:00pm 2.3 -1.5 -4.0 63 2.3 W 7 9 4 5 - - 0.0
04/09:30pm 1.8 -2.3 -3.3 69 2.0 W 9 11 5 6 - - 0.0
04/09:00pm 0.9 -3.6 -3.4 73 1.6 W 11 15 6 8 - - 0.0
04/08:30pm 1.4 -3.5 -3.3 71 1.8 W 13 17 7 9 - - 0.0
04/08:00pm 1.8 -3.4 -3.1 70 1.8 W 15 19 8 10 - - 0.0
04/07:30pm 2.5 -3.1 -3.0 67 2.0 W 17 20 9 11 - - 0.0
04/07:00pm 2.7 -3.5 -2.8 67 2.0 W 20 24 11 13 - - 0.0
04/06:30pm 3.1 -2.5 -3.0 64 2.3 W 17 20 9 11 - - 0.0
04/06:00pm 3.5 -2.1 -2.7 64 2.3 W 17 22 9 12 - - 0.0
04/05:30pm 3.9 -1.7 -2.7 62 2.5 W 17 22 9 12 - - 0.0
04/05:00pm 5.0 -0.6 -3.3 55 3.1 W 17 24 9 13 - - 0.0
04/04:30pm 6.0 0.0 -2.8 53 3.4 W 19 28 10 15 - - 0.0
04/04:00pm 6.7 0.7 -2.7 51 3.7 W 19 30 10 16 - - 0.0
04/03:30pm 7.4 1.6 -1.3 54 3.5 W 19 28 10 15 - - 0.0
04/03:00pm 7.1 1.2 -2.3 51 3.7 W 19 28 10 15 - - 0.0
04/02:30pm 7.0 0.4 -3.0 49 3.9 W 22 32 12 17 - - 0.0
04/02:00pm 7.2 0.2 -3.6 46 4.1 W 24 37 13 20 - - 0.0
04/01:30pm 7.0 -1.0 -5.3 41 4.5 W 28 43 15 23 - - 0.0
04/01:00pm 6.1 -0.9 -6.8 39 4.5 W 22 32 12 17 - - 0.0
04/12:30pm 5.3 -2.0 -5.9 44 4.0 W 24 33 13 18 - - 0.0
04/12:00pm 4.6 -2.4 -7.2 42 4.0 W 22 30 12 16 - - 0.0
04/11:30am 4.2 -2.6 -5.5 49 3.4 W 22 28 12 15 - - 0.0
04/11:00am 3.4 -3.1 -5.5 52 3.1 W 20 26 11 14 - - 0.0
04/10:30am 3.6 -2.7 -6.1 49 3.3 W 19 24 10 13 - - 0.0
04/10:00am 2.0 -4.5 -5.8 56 2.8 W 20 30 11 16 - - 0.0
04/09:30am 2.5 -4.0 -5.6 55 2.9 W 20 28 11 15 - - 0.0
04/09:00am 2.1 -5.1 -5.1 59 2.6 W 24 33 13 18 - - 0.0
04/08:30am 1.8 -5.1 -5.8 57 2.7 W 22 28 12 15 - - 0.0
04/08:00am 1.8 -6.0 -7.5 50 3.1 W 26 33 14 18 - - 0.0
04/07:30am 1.3 -7.2 -6.5 56 2.7 W 30 37 16 20 - - 0.0
04/07:00am 0.7 -7.7 -5.9 61 2.3 W 30 43 16 23 - - 0.0
04/06:30am 0.4 -7.9 -5.2 66 1.9 WSW 30 37 16 20 - - 0.0
04/06:00am -0.1 -7.6 -4.3 73 1.5 W 26 35 14 19 - - 0.0
04/05:30am -0.7 -7.8 -4.0 78 1.1 WSW 24 30 13 16 - - 0.0
04/05:00am -0.7 -6.9 -3.4 82 0.9 WSW 20 28 11 15 - - 0.0
04/04:30am -0.4 -7.0 -3.1 82 0.9 WSW 22 28 12 15 - - 0.0
04/04:00am -0.2 -6.2 -3.1 81 1.0 W 19 24 10 13 - - 0.0
04/03:30am -0.2 -6.2 -3.2 80 1.1 W 19 24 10 13 - - 0.0
04/03:00am 0.0 -5.6 -3.0 80 1.1 W 17 26 9 14 - - 0.0
04/02:30am 0.4 -5.6 -3.1 77 1.3 W 19 28 10 15 - - 0.0
04/02:00am 0.6 -5.4 -3.0 77 1.3 W 19 32 10 17 - - 0.0
04/01:30am 0.6 -4.6 -2.8 78 1.3 WSW 15 19 8 10 - - 0.0
04/01:00am 1.0 -3.1 -2.9 75 1.5 WNW 9 13 5 7 - - 0.0
04/12:30am 0.7 -4.9 -2.9 77 1.3 W 17 22 9 12 - - 0.0
04/12:00am 0.7 -4.1 -2.7 78 1.3 WNW 13 17 7 9 - - 0.0
 
Date/Time
EST
Tmp

°C
App
Tmp
°C
Dew
Point
°C
Rel
Hum
%
Delta-T

°C
Wind Press
QNH
hPa
Press
MSL
hPa
Rain
since
9 am
mm
Dir
 
Spd
km/h
Gust
km/h
Spd
kts
Gust
kts
03/11:30pm 0.6 -3.8 -2.4 80 1.1 WNW 11 15 6 8 - - 0.0
03/11:00pm 0.3 -3.8 -2.7 80 1.1 WNW 9 13 5 7 - - 0.0
03/10:30pm 0.5 -3.2 -3.1 77 1.3 WNW 7 11 4 6 - - 0.0
03/10:00pm 1.3 -2.4 -3.0 73 1.6 WSW 7 11 4 6 - - 0.0
03/09:30pm 1.5 -2.6 -3.0 72 1.7 W 9 13 5 7 - - 0.0
03/09:00pm 1.9 -2.5 -2.6 72 1.7 WNW 11 15 6 8 - - 0.0
03/08:30pm 1.9 -2.2 -2.8 71 1.7 WNW 9 13 5 7 - - 0.0
03/08:00pm 1.8 -1.9 -3.3 69 2.0 W 7 9 4 5 - - 0.0
03/07:30pm 1.5 -2.3 -3.6 69 1.9 WNW 7 11 4 6 - - 0.0
03/07:00pm 1.9 -2.2 -3.2 69 1.9 WNW 9 13 5 7 - - 0.0
03/06:30pm 2.4 -1.7 -2.9 68 2.0 WNW 9 11 5 6 - - 0.0
03/06:00pm 3.7 -1.0 -2.0 66 2.2 W 13 20 7 11 - - 0.0
03/05:30pm 4.0 -0.7 -1.6 67 2.2 WSW 13 19 7 10 - - 0.0
03/05:00pm 5.2 1.1 -0.4 67 2.3 W 11 19 6 10 - - 0.0
03/04:30pm 6.1 3.1 1.8 74 1.9 NE 7 11 4 6 - - 0.0
03/04:00pm 7.7 4.7 2.0 67 2.5 NNE 7 13 4 7 - - 0.0
03/03:30pm 8.6 5.4 0.6 57 3.4 WNW 7 13 4 7 - - 0.0

Latest Capital City Observations: Canberra | Sydney | Melbourne | Brisbane | Adelaide | Perth | Hobart | Darwin

Other Formats:

Comma delimited format used in spreadsheet applications
http://www.bom.gov.au/fwo/IDN60901/IDN60901.94743.axf

JavaScript Object Notation format (JSON) in row-major order
http://www.bom.gov.au/fwo/IDN60901/IDN60901.94743.json